Time;durP1;ratioP1;P1;durP2;ratioP2;P2;SDS_P1;SDS_P2;PMS_P1;PMS_P2;Temp;Humidity;BMP_temperature;BMP_pressure;BME280_temperature;BME280_humidity;BME280_pressure;Samples;Min_cycle;Max_cycle;Signal;HPM_P1;HPM_P2
2022/08/27 00:01:34;;;;;;;10.60;6.03;;;13.40;99.90;;;;;;5023810;28;20057;-49
2022/08/27 00:04:00;;;;;;;7.82;5.22;;;13.40;99.90;;;;;;5021968;28;20093;-46
2022/08/27 00:06:26;;;;;;;6.65;5.32;;;13.40;99.90;;;;;;5024429;28;20049;-47
2022/08/27 00:08:53;;;;;;;8.45;5.85;;;13.40;99.90;;;;;;5023563;28;20092;-49
2022/08/27 00:11:20;;;;;;;8.15;5.35;;;13.40;99.90;;;;;;5022569;28;20092;-49
2022/08/27 00:13:47;;;;;;;8.95;4.90;;;13.40;99.90;;;;;;5021937;28;20076;-46
2022/08/27 00:16:15;;;;;;;7.72;5.38;;;13.40;99.90;;;;;;5024615;28;20049;-48
2022/08/27 00:18:44;;;;;;;6.97;5.05;;;13.40;99.90;;;;;;5023480;28;20049;-50
2022/08/27 00:21:13;;;;;;;6.73;5.00;;;13.40;99.90;;;;;;5021914;28;20059;-48
2022/08/27 00:23:39;;;;;;;9.73;5.30;;;13.30;99.90;;;;;;5021498;28;20124;-48
2022/08/27 00:26:07;;;;;;;8.00;6.05;;;13.30;99.90;;;;;;5024134;28;20080;-49
2022/08/27 00:28:33;;;;;;;5.68;4.97;;;13.20;99.90;;;;;;5022777;28;20111;-48
2022/08/27 00:30:59;;;;;;;7.28;5.20;;;13.20;99.90;;;;;;5021960;28;20049;-50
2022/08/27 00:33:26;;;;;;;8.05;5.20;;;13.20;99.90;;;;;;5023487;28;20084;-49
2022/08/27 00:35:52;;;;;;;8.43;5.93;;;13.20;99.90;;;;;;5024289;28;20061;-49
2022/08/27 00:38:20;;;;;;;7.05;5.30;;;13.10;99.90;;;;;;5036797;28;20654;-47
2022/08/27 00:40:47;;;;;;;7.35;5.43;;;13.10;99.90;;;;;;5042227;28;20488;-50
2022/08/27 00:43:19;;;;;;;10.40;6.00;;;13.00;99.90;;;;;;5042695;28;20060;-50
2022/08/27 00:45:46;;;;;;;7.35;5.10;;;13.10;99.90;;;;;;5043134;28;20053;-47
2022/08/27 00:48:14;;;;;;;11.45;5.70;;;13.00;99.90;;;;;;5042363;28;20052;-48
2022/08/27 00:50:50;;;;;;;7.65;5.45;;;12.90;99.90;;;;;;5024651;28;20052;-46
2022/08/27 00:53:21;;;;;;;8.73;5.70;;;12.90;99.90;;;;;;5025209;28;20056;-50
2022/08/27 00:56:05;;;;;;;7.00;6.20;;;12.90;99.90;;;;;;5040017;28;20044;-49
2022/08/27 00:58:36;;;;;;;8.07;6.57;;;12.90;99.90;;;;;;5042932;28;20049;-50
2022/08/27 01:01:06;;;;;;;7.20;5.80;;;12.90;99.90;;;;;;5042991;28;20049;-48
2022/08/27 01:03:33;;;;;;;8.13;6.10;;;12.90;99.90;;;;;;5025808;28;20063;-46
2022/08/27 01:06:01;;;;;;;9.45;6.63;;;12.90;99.90;;;;;;5043587;28;20566;-49
2022/08/27 01:08:32;;;;;;;7.90;5.65;;;12.90;99.90;;;;;;5025538;28;20383;-48
2022/08/27 01:11:00;;;;;;;7.65;5.65;;;12.90;99.90;;;;;;5042972;28;20052;-48
2022/08/27 01:13:31;;;;;;;7.47;5.88;;;12.90;99.90;;;;;;5042849;28;20044;-47
2022/08/27 01:15:58;;;;;;;9.77;6.10;;;12.90;99.90;;;;;;5024562;28;20052;-50
2022/08/27 01:18:30;;;;;;;10.88;6.20;;;12.80;99.90;;;;;;5036256;28;20079;-48
2022/08/27 01:20:59;;;;;;;8.50;5.70;;;12.80;99.90;;;;;;5042293;28;20088;-49
2022/08/27 01:23:39;;;;;;;9.10;6.60;;;12.90;99.90;;;;;;5043192;28;20067;-47
2022/08/27 01:26:08;;;;;;;7.30;5.70;;;12.90;99.90;;;;;;5043584;28;20045;-48
2022/08/27 01:28:35;;;;;;;6.05;5.10;;;12.90;99.90;;;;;;5024936;28;20504;-47
2022/08/27 01:31:04;;;;;;;10.05;6.07;;;12.90;99.90;;;;;;5042611;28;20128;-47
2022/08/27 01:33:30;;;;;;;19.35;6.30;;;12.90;99.90;;;;;;5042049;28;20544;-49
2022/08/27 01:35:56;;;;;;;9.77;6.47;;;12.90;99.90;;;;;;5041983;28;20044;-48
2022/08/27 01:38:23;;;;;;;9.57;6.32;;;12.90;99.90;;;;;;5042074;28;20069;-48
2022/08/27 01:40:49;;;;;;;8.02;6.55;;;13.00;99.90;;;;;;5025188;28;20118;-50
2022/08/27 01:43:16;;;;;;;10.02;6.20;;;13.00;99.90;;;;;;5042678;28;20052;-49
2022/08/27 01:45:48;;;;;;;13.18;8.00;;;13.00;99.90;;;;;;5043021;28;20122;-48
2022/08/27 01:48:16;;;;;;;9.50;7.20;;;13.00;99.90;;;;;;5042647;28;20120;-48
2022/08/27 01:50:43;;;;;;;10.52;7.28;;;13.00;99.90;;;;;;5043303;28;20041;-49
2022/08/27 01:53:15;;;;;;;9.57;6.32;;;13.10;99.90;;;;;;5024045;28;20091;-52
2022/08/27 01:55:42;;;;;;;8.23;6.78;;;13.10;99.90;;;;;;5041783;28;20404;-49
2022/08/27 01:58:09;;;;;;;9.85;6.40;;;13.10;99.90;;;;;;5042175;28;20158;-48
2022/08/27 02:00:39;;;;;;;9.07;6.60;;;13.10;99.90;;;;;;5041986;28;20067;-47
2022/08/27 02:03:07;;;;;;;8.15;6.45;;;13.10;99.90;;;;;;5039267;28;20056;-49
2022/08/27 02:05:33;;;;;;;6.95;6.20;;;13.00;99.90;;;;;;5042072;28;20102;-49
2022/08/27 02:07:59;;;;;;;9.23;6.50;;;13.00;99.90;;;;;;5042150;28;20488;-49
2022/08/27 02:10:38;;;;;;;11.38;6.53;;;12.90;99.90;;;;;;5021776;28;20567;-50
2022/08/27 02:13:05;;;;;;;7.47;5.88;;;12.90;99.90;;;;;;5037558;28;20122;-46
2022/08/27 02:15:33;;;;;;;10.40;6.38;;;12.90;99.90;;;;;;5042056;28;20044;-51
2022/08/27 02:17:59;;;;;;;7.05;5.68;;;12.80;99.90;;;;;;5042634;28;20045;-50
2022/08/27 02:20:26;;;;;;;7.50;6.25;;;12.70;99.90;;;;;;5042989;28;20055;-50
2022/08/27 02:22:52;;;;;;;8.90;6.28;;;12.70;99.90;;;;;;5043039;28;20063;-50
2022/08/27 02:25:19;;;;;;;7.00;6.25;;;12.70;99.90;;;;;;5042827;28;20040;-48
2022/08/27 02:27:47;;;;;;;7.88;6.10;;;12.70;99.90;;;;;;5042058;28;20052;-48
2022/08/27 02:30:16;;;;;;;7.93;6.07;;;12.70;99.90;;;;;;5041523;28;20099;-51
2022/08/27 02:32:46;;;;;;;7.30;5.80;;;12.60;99.90;;;;;;5041396;28;20049;-47
2022/08/27 02:35:16;;;;;;;7.75;6.35;;;12.70;99.90;;;;;;5042100;28;20048;-50
2022/08/27 02:37:43;;;;;;;10.38;7.78;;;12.70;99.90;;;;;;5041615;28;20076;-49
2022/08/27 02:40:10;;;;;;;8.90;7.30;;;12.70;99.90;;;;;;5023875;28;20791;-51
2022/08/27 02:42:37;;;;;;;8.35;7.55;;;12.70;99.90;;;;;;5042341;28;20052;-47
2022/08/27 02:45:06;;;;;;;9.60;6.95;;;12.70;99.90;;;;;;5043814;28;20048;-49
2022/08/27 02:47:34;;;;;;;8.93;6.88;;;12.70;99.90;;;;;;5045075;28;20049;-51
2022/08/27 02:50:00;;;;;;;8.10;7.30;;;12.70;99.90;;;;;;5043614;28;20084;-47
2022/08/27 02:52:28;;;;;;;6.90;6.25;;;12.70;99.90;;;;;;5044058;28;20499;-48
2022/08/27 02:54:55;;;;;;;8.40;7.57;;;12.70;99.90;;;;;;5044431;28;20503;-48
2022/08/27 02:57:21;;;;;;;9.48;7.05;;;12.70;99.90;;;;;;5044802;28;20064;-47
2022/08/27 02:59:48;;;;;;;11.55;7.63;;;12.70;99.90;;;;;;5044887;28;20451;-49
2022/08/27 03:02:14;;;;;;;11.18;7.30;;;12.70;99.90;;;;;;5026957;28;20060;-50
2022/08/27 03:04:40;;;;;;;6.82;5.97;;;12.70;99.90;;;;;;5045038;28;20056;-46
2022/08/27 03:07:06;;;;;;;6.60;6.00;;;12.60;99.90;;;;;;5044501;28;20040;-51
2022/08/27 03:09:33;;;;;;;7.53;5.97;;;12.60;99.90;;;;;;5044672;28;20428;-49
2022/08/27 03:12:00;;;;;;;7.65;6.30;;;12.60;99.90;;;;;;5045298;28;20059;-48
2022/08/27 03:14:27;;;;;;;8.18;6.78;;;12.60;99.90;;;;;;5024798;28;20091;-49
2022/08/27 03:16:53;;;;;;;8.98;7.68;;;12.60;99.90;;;;;;5045066;28;20136;-48
2022/08/27 03:19:20;;;;;;;7.00;5.95;;;12.60;99.90;;;;;;5044849;28;20388;-48
2022/08/27 03:21:47;;;;;;;7.82;5.70;;;12.50;99.90;;;;;;5027325;28;20190;-47
2022/08/27 03:24:14;;;;;;;8.52;6.75;;;12.50;99.90;;;;;;5046080;28;20049;-47
2022/08/27 03:26:40;;;;;;;7.40;6.18;;;12.50;99.90;;;;;;5026837;28;20053;-46
2022/08/27 03:29:06;;;;;;;8.55;6.97;;;12.50;99.90;;;;;;5044293;28;20045;-46
2022/08/27 03:31:34;;;;;;;10.38;6.50;;;12.50;99.90;;;;;;5045603;28;20083;-50
2022/08/27 03:34:03;;;;;;;7.22;6.25;;;12.50;99.90;;;;;;5046241;28;20158;-48
2022/08/27 03:36:29;;;;;;;8.07;5.78;;;12.50;99.90;;;;;;5045733;28;20522;-49
2022/08/27 03:38:56;;;;;;;7.40;6.38;;;12.50;99.90;;;;;;5026836;28;20442;-47
2022/08/27 03:41:23;;;;;;;7.15;6.18;;;12.50;99.90;;;;;;5044672;28;20524;-47
2022/08/27 03:43:51;;;;;;;9.25;7.13;;;12.50;99.90;;;;;;5042350;28;20439;-47
2022/08/27 03:46:19;;;;;;;8.40;6.90;;;12.50;99.90;;;;;;5042652;28;20452;-47
2022/08/27 03:48:46;;;;;;;8.85;5.97;;;12.50;99.90;;;;;;5041869;28;20412;-47
2022/08/27 03:51:14;;;;;;;6.18;5.40;;;12.60;99.90;;;;;;5042387;28;20079;-48
2022/08/27 03:53:41;;;;;;;6.97;6.25;;;12.50;99.90;;;;;;5042100;28;20371;-47
2022/08/27 03:56:08;;;;;;;9.45;6.80;;;12.60;99.90;;;;;;5024583;28;20483;-48
2022/08/27 03:58:34;;;;;;;8.93;7.55;;;12.60;99.90;;;;;;5041630;28;20463;-46
2022/08/27 04:01:00;;;;;;;10.18;7.82;;;12.60;99.90;;;;;;5042943;28;20049;-50
2022/08/27 04:03:27;;;;;;;7.47;6.50;;;12.70;99.90;;;;;;5023165;28;20122;-46
2022/08/27 04:05:54;;;;;;;8.48;7.32;;;12.80;99.90;;;;;;5042442;28;20056;-47
2022/08/27 04:08:21;;;;;;;7.07;5.90;;;12.80;99.90;;;;;;5042065;28;20053;-47
2022/08/27 04:10:48;;;;;;;9.50;7.32;;;12.90;99.90;;;;;;5042392;28;20379;-48
2022/08/27 04:13:16;;;;;;;10.95;6.47;;;12.80;99.90;;;;;;5023660;28;20571;-49
2022/08/27 04:15:46;;;;;;;8.95;7.07;;;12.90;99.90;;;;;;5041372;28;20145;-46
2022/08/27 04:18:15;;;;;;;8.90;6.90;;;12.90;99.90;;;;;;5020802;28;20053;-49
2022/08/27 04:20:46;;;;;;;8.90;6.57;;;13.00;99.90;;;;;;5037249;28;20492;-48
2022/08/27 04:23:12;;;;;;;8.50;6.63;;;13.00;99.90;;;;;;5040584;28;20134;-48
2022/08/27 04:25:40;;;;;;;10.77;6.68;;;13.00;99.90;;;;;;5042253;28;20069;-47
2022/08/27 04:28:06;;;;;;;7.72;6.40;;;13.00;99.90;;;;;;5024695;28;20396;-48
2022/08/27 04:30:32;;;;;;;9.77;6.40;;;13.00;99.90;;;;;;5024645;28;20053;-51
2022/08/27 04:32:58;;;;;;;9.65;6.72;;;13.10;99.90;;;;;;5042098;28;20048;-47
2022/08/27 04:35:24;;;;;;;9.63;6.30;;;13.10;99.90;;;;;;5023349;28;20053;-48
2022/08/27 04:37:50;;;;;;;8.70;6.82;;;13.10;99.90;;;;;;5042143;28;20053;-48
2022/08/27 04:40:16;;;;;;;7.50;6.40;;;13.10;99.90;;;;;;5042332;28;20049;-48
2022/08/27 04:42:42;;;;;;;8.77;6.90;;;13.10;99.90;;;;;;5044269;28;20036;-47
2022/08/27 04:45:09;;;;;;;8.65;6.68;;;13.10;99.90;;;;;;5042745;28;20574;-49
2022/08/27 04:47:35;;;;;;;7.82;6.72;;;13.10;99.90;;;;;;5042472;28;20056;-47
2022/08/27 04:50:01;;;;;;;9.38;6.85;;;13.10;99.90;;;;;;5042277;28;20052;-49
2022/08/27 04:52:26;;;;;;;9.05;6.82;;;13.10;99.90;;;;;;5040365;28;20045;-46
2022/08/27 04:54:52;;;;;;;9.15;6.82;;;13.10;99.90;;;;;;5023716;28;20055;-51
2022/08/27 04:57:18;;;;;;;11.73;7.10;;;13.00;99.90;;;;;;5041383;28;20061;-46
2022/08/27 04:59:44;;;;;;;10.93;7.25;;;13.00;99.90;;;;;;5040916;28;20135;-50
2022/08/27 05:02:10;;;;;;;8.30;6.10;;;13.10;99.90;;;;;;5022421;28;20075;-47
2022/08/27 05:04:39;;;;;;;7.22;6.53;;;13.10;99.90;;;;;;5041371;28;20052;-46
2022/08/27 05:07:06;;;;;;;11.25;7.13;;;13.10;99.90;;;;;;5040469;28;20049;-46
2022/08/27 05:09:33;;;;;;;7.88;7.07;;;13.20;99.90;;;;;;5041999;28;20044;-46
2022/08/27 05:12:00;;;;;;;8.43;6.35;;;13.20;99.90;;;;;;5040601;28;20495;-48
2022/08/27 05:14:28;;;;;;;10.23;6.65;;;13.30;99.90;;;;;;5041365;28;20048;-46
2022/08/27 05:16:56;;;;;;;9.07;7.00;;;13.50;99.90;;;;;;5040538;28;20118;-46
2022/08/27 05:19:26;;;;;;;9.27;6.95;;;13.60;99.90;;;;;;5040539;28;20065;-47
2022/08/27 05:21:54;;;;;;;9.63;6.80;;;13.80;99.90;;;;;;5040871;28;20048;-46
2022/08/27 05:24:21;;;;;;;10.27;6.85;;;13.90;99.90;;;;;;5041218;28;20445;-46
2022/08/27 05:26:48;;;;;;;10.63;7.05;;;13.90;99.90;;;;;;5040467;28;20045;-46
2022/08/27 05:29:14;;;;;;;8.90;6.25;;;14.00;99.90;;;;;;5041746;28;20057;-49
2022/08/27 05:31:41;;;;;;;6.43;5.75;;;14.10;99.90;;;;;;5041313;28;20504;-47
2022/08/27 05:34:07;;;;;;;9.95;6.10;;;14.30;99.90;;;;;;5041065;28;20045;-46
2022/08/27 05:36:34;;;;;;;7.32;5.78;;;14.40;99.90;;;;;;5022597;28;20052;-47
2022/08/27 05:39:01;;;;;;;7.50;5.63;;;14.60;99.90;;;;;;5023031;28;20602;-49
2022/08/27 05:41:29;;;;;;;8.13;5.70;;;14.80;99.90;;;;;;5022898;28;20136;-46
2022/08/27 05:43:57;;;;;;;8.38;5.72;;;14.90;99.90;;;;;;5041466;28;20124;-46
2022/08/27 05:46:26;;;;;;;9.55;5.88;;;15.00;99.90;;;;;;5041376;28;20053;-47
2022/08/27 05:48:54;;;;;;;7.20;5.95;;;15.10;99.90;;;;;;5041530;28;20529;-46
2022/08/27 05:51:34;;;;;;;6.55;5.68;;;15.10;99.90;;;;;;5042621;28;20494;-48
2022/08/27 05:54:13;;;;;;;9.13;6.05;;;15.20;99.90;;;;;;5041672;28;20143;-50
2022/08/27 05:56:40;;;;;;;7.47;5.78;;;15.30;99.90;;;;;;5044214;28;20084;-49
2022/08/27 06:01:53;;;;;;;5.75;4.53;;;15.50;99.90;;;;;;5041111;28;20102;-49
2022/08/27 06:04:21;;;;;;;10.27;5.53;;;15.60;99.90;;;;;;5040894;28;20051;-47
2022/08/27 06:06:48;;;;;;;8.60;5.30;;;15.80;99.90;;;;;;5018658;28;20049;-48
2022/08/27 06:09:19;;;;;;;9.35;5.03;;;15.90;99.90;;;;;;5037020;28;20128;-47
2022/08/27 06:11:45;;;;;;;6.53;5.30;;;16.00;99.90;;;;;;5040554;28;20049;-48
2022/08/27 06:14:11;;;;;;;7.20;4.88;;;16.10;99.90;;;;;;5040087;28;20063;-46
2022/08/27 06:16:39;;;;;;;10.70;5.78;;;16.10;99.90;;;;;;5039785;28;20108;-46
2022/08/27 06:19:06;;;;;;;6.45;4.75;;;16.20;99.90;;;;;;5042710;28;20051;-46
2022/08/27 06:21:33;;;;;;;7.65;4.80;;;16.20;99.90;;;;;;5026272;28;20045;-47
2022/08/27 06:23:58;;;;;;;6.22;4.20;;;16.30;99.90;;;;;;5044478;28;20055;-46
2022/08/27 06:26:25;;;;;;;9.35;4.85;;;16.50;99.90;;;;;;5044598;28;20048;-45
2022/08/27 06:28:52;;;;;;;7.32;4.97;;;16.60;99.90;;;;;;5043901;28;20041;-48
2022/08/27 06:31:21;;;;;;;7.38;5.35;;;16.80;99.90;;;;;;5043374;28;20044;-47
2022/08/27 06:33:50;;;;;;;6.90;4.82;;;16.90;99.90;;;;;;5043806;28;20440;-46
2022/08/27 06:36:21;;;;;;;10.38;4.00;;;17.00;99.90;;;;;;5044430;28;20049;-47
2022/08/27 06:38:48;;;;;;;5.97;3.90;;;17.10;99.90;;;;;;5042951;28;20533;-48
2022/08/27 06:41:16;;;;;;;9.60;4.05;;;17.40;99.90;;;;;;5043791;28;20171;-48
2022/08/27 06:43:42;;;;;;;9.13;4.00;;;17.70;99.90;;;;;;5044121;28;20083;-46
2022/08/27 06:46:11;;;;;;;5.57;3.00;;;17.80;99.90;;;;;;5043711;28;20136;-46
2022/08/27 06:48:37;;;;;;;13.45;4.80;;;17.80;99.90;;;;;;5029269;28;20083;-49
2022/08/27 06:51:17;;;;;;;8.52;4.05;;;17.90;99.90;;;;;;5043080;28;20631;-47
2022/08/27 06:53:45;;;;;;;12.10;4.40;;;17.90;99.90;;;;;;5044669;28;20067;-48
2022/08/27 06:56:15;;;;;;;7.18;4.25;;;17.90;99.90;;;;;;5044350;28;20130;-46
2022/08/27 06:58:42;;;;;;;9.23;4.50;;;17.90;99.90;;;;;;5044120;28;20476;-46
2022/08/27 07:01:21;;;;;;;10.63;3.50;;;17.90;99.90;;;;;;5044114;28;20420;-47
2022/08/27 07:03:47;;;;;;;9.60;3.80;;;18.00;99.90;;;;;;5027988;28;20048;-46
2022/08/27 07:06:14;;;;;;;8.60;3.42;;;18.00;99.90;;;;;;5044738;28;20483;-47
2022/08/27 07:08:40;;;;;;;7.53;3.42;;;18.00;99.90;;;;;;5044438;28;20539;-47
2022/08/27 07:11:08;;;;;;;10.50;3.35;;;18.10;99.90;;;;;;5045675;28;20045;-47
2022/08/27 07:13:35;;;;;;;8.23;4.10;;;18.10;99.90;;;;;;5045683;28;20053;-47
2022/08/27 07:16:11;;;;;;;9.68;3.10;;;18.20;99.90;;;;;;5023698;28;20095;-46
2022/08/27 07:18:42;;;;;;;7.63;3.00;;;18.20;99.90;;;;;;5043696;28;20543;-46
2022/08/27 07:21:08;;;;;;;7.82;2.60;;;18.20;99.90;;;;;;5025739;28;20558;-48
2022/08/27 07:23:36;;;;;;;8.65;2.97;;;18.10;99.90;;;;;;5026087;28;20483;-49
2022/08/27 07:26:08;;;;;;;7.07;3.22;;;18.10;99.90;;;;;;5042408;28;20132;-49
2022/08/27 07:28:34;;;;;;;9.80;3.50;;;18.10;99.90;;;;;;5021163;28;20613;-48
2022/08/27 07:30:59;;;;;;;6.55;2.20;;;18.10;99.90;;;;;;5043962;28;20057;-48
2022/08/27 07:33:25;;;;;;;5.82;2.85;;;18.20;99.90;;;;;;5042610;28;20051;-47
2022/08/27 07:35:51;;;;;;;6.90;2.85;;;18.20;99.90;;;;;;5044058;28;20045;-49
2022/08/27 07:38:18;;;;;;;7.88;2.42;;;18.30;99.90;;;;;;5021154;28;20061;-47
2022/08/27 07:40:44;;;;;;;6.57;2.80;;;18.30;99.90;;;;;;5022694;28;20091;-49
2022/08/27 07:45:57;;;;;;;5.68;2.90;;;18.40;99.90;;;;;;5022671;28;20119;-49
2022/08/27 07:48:23;;;;;;;8.02;2.95;;;18.60;99.90;;;;;;5020519;28;20389;-48
2022/08/27 07:50:49;;;;;;;6.90;2.53;;;18.60;99.90;;;;;;5022600;28;20412;-46
2022/08/27 07:53:15;;;;;;;10.13;2.88;;;18.80;99.90;;;;;;5020826;28;20037;-48
2022/08/27 07:55:41;;;;;;;6.22;2.50;;;18.90;99.90;;;;;;5015192;28;20056;-46
2022/08/27 07:58:07;;;;;;;7.72;2.65;;;19.00;99.90;;;;;;5022825;28;20128;-47
2022/08/27 08:00:33;;;;;;;7.28;2.53;;;19.10;99.90;;;;;;5022872;28;20176;-47
2022/08/27 08:03:00;;;;;;;7.05;2.58;;;19.10;99.90;;;;;;5022064;28;20050;-47
2022/08/27 08:05:26;;;;;;;5.07;2.50;;;19.20;99.90;;;;;;5021954;28;20088;-46
2022/08/27 08:07:52;;;;;;;6.10;2.67;;;19.30;99.90;;;;;;5022542;28;20045;-46
2022/08/27 08:10:21;;;;;;;9.05;3.15;;;19.40;99.90;;;;;;5022160;28;20519;-47
2022/08/27 08:12:47;;;;;;;7.32;2.97;;;19.30;99.90;;;;;;5022748;28;20054;-46
2022/08/27 08:15:14;;;;;;;9.45;2.75;;;19.50;99.90;;;;;;5017787;28;20129;-48
2022/08/27 08:17:40;;;;;;;9.15;2.53;;;19.60;99.90;;;;;;5022650;28;20049;-47
2022/08/27 08:20:07;;;;;;;7.03;2.80;;;19.80;99.90;;;;;;5022799;28;20554;-47
2022/08/27 08:22:34;;;;;;;9.40;2.28;;;19.90;99.90;;;;;;5021170;28;20055;-48
2022/08/27 08:25:00;;;;;;;9.90;2.47;;;19.90;99.90;;;;;;5022212;28;20049;-48
2022/08/27 08:27:26;;;;;;;9.43;2.70;;;19.70;99.90;;;;;;5022400;28;20048;-46
2022/08/27 08:29:52;;;;;;;6.20;2.10;;;19.70;99.90;;;;;;5022776;28;20144;-46
2022/08/27 08:32:19;;;;;;;8.48;2.33;;;19.70;99.90;;;;;;5021736;28;20514;-45
2022/08/27 08:34:45;;;;;;;5.40;1.85;;;19.60;99.90;;;;;;5021470;28;20051;-50
2022/08/27 08:37:13;;;;;;;6.40;1.80;;;19.60;99.90;;;;;;5026385;28;20053;-47
2022/08/27 08:39:40;;;;;;;7.80;2.38;;;19.40;99.90;;;;;;5041767;28;20060;-48
2022/08/27 08:42:09;;;;;;;7.03;1.80;;;19.40;99.90;;;;;;5040652;28;20064;-48
2022/08/27 08:44:47;;;;;;;6.25;1.73;;;19.40;99.90;;;;;;5042524;28;20123;-46
2022/08/27 08:47:23;;;;;;;11.50;2.65;;;19.30;99.90;;;;;;5035665;28;20037;-46
2022/08/27 08:49:52;;;;;;;4.82;2.17;;;19.30;99.90;;;;;;5034311;28;20124;-46
2022/08/27 08:52:48;;;;;;;9.13;2.00;;;19.30;99.90;;;;;;5039750;28;20048;-48
2022/08/27 08:55:14;;;;;;;7.80;2.00;;;19.30;99.90;;;;;;5040677;28;20074;-48
2022/08/27 08:57:49;;;;;;;8.15;2.22;;;19.40;99.90;;;;;;5038938;28;20049;-46
2022/08/27 09:00:15;;;;;;;8.02;2.00;;;19.40;99.90;;;;;;5040813;28;20045;-48
2022/08/27 09:02:53;;;;;;;7.40;1.92;;;19.40;99.90;;;;;;5033947;28;20041;-47
2022/08/27 09:05:21;;;;;;;5.55;2.20;;;19.50;99.90;;;;;;5040356;28;20128;-47
2022/08/27 09:08:19;;;;;;;5.15;2.08;;;19.70;99.90;;;;;;5037786;28;20036;-48
2022/08/27 09:10:57;;;;;;;7.15;2.08;;;19.80;99.90;;;;;;4960364;28;20066;-50
2022/08/27 09:13:29;;;;;;;8.40;2.58;;;19.80;99.90;;;;;;4966994;28;20061;-50
2022/08/27 09:15:58;;;;;;;6.50;2.05;;;19.80;99.90;;;;;;4969356;28;20062;-49
2022/08/27 09:18:24;;;;;;;6.47;2.53;;;19.80;99.90;;;;;;4971304;28;20479;-46
2022/08/27 09:20:59;;;;;;;5.25;1.88;;;20.00;99.90;;;;;;4970240;28;20097;-46
2022/08/27 09:23:48;;;;;;;6.10;2.40;;;20.00;99.90;;;;;;4972657;28;20190;-46
2022/08/27 09:26:21;;;;;;;6.10;1.90;;;20.00;99.90;;;;;;4976700;28;20058;-49
2022/08/27 09:31:39;;;;;;;4.95;1.60;;;19.90;99.90;;;;;;4971961;28;20580;-49
2022/08/27 09:34:05;;;;;;;7.25;2.08;;;20.40;99.90;;;;;;4972102;28;20536;-48
2022/08/27 09:36:31;;;;;;;6.03;1.92;;;20.90;99.90;;;;;;4974923;28;20395;-48
2022/08/27 09:39:01;;;;;;;6.78;2.00;;;21.20;99.90;;;;;;4970559;28;20057;-47
2022/08/27 09:41:31;;;;;;;3.85;1.92;;;20.90;99.90;;;;;;4978331;28;20445;-47
2022/08/27 09:43:59;;;;;;;7.78;1.80;;;20.70;99.90;;;;;;4973970;28;20141;-49
2022/08/27 09:46:26;;;;;;;6.15;2.08;;;20.50;99.90;;;;;;4972122;28;20050;-48
2022/08/27 09:48:53;;;;;;;8.70;2.17;;;20.30;99.90;;;;;;5033102;28;20495;-48
2022/08/27 09:51:28;;;;;;;7.05;1.90;;;20.20;99.90;;;;;;5038258;28;20048;-46
2022/08/27 09:54:00;;;;;;;7.95;1.92;;;20.10;99.90;;;;;;5023467;28;20060;-47
2022/08/27 09:56:31;;;;;;;9.60;1.70;;;20.30;99.90;;;;;;5044096;28;20041;-48
2022/08/27 09:59:06;;;;;;;9.20;1.90;;;20.20;99.90;;;;;;5042504;28;20491;-48
2022/08/27 10:01:49;;;;;;;5.35;1.85;;;20.30;99.90;;;;;;5042268;28;20052;-48
2022/08/27 10:04:22;;;;;;;6.90;1.70;;;20.20;99.90;;;;;;5043909;28;21205;-52
2022/08/27 10:06:49;;;;;;;6.40;1.90;;;20.30;99.90;;;;;;5008579;28;20480;-50
2022/08/27 10:09:39;;;;;;;6.05;1.95;;;20.90;99.90;;;;;;5042135;28;20053;-50
2022/08/27 10:12:23;;;;;;;5.00;1.90;;;21.50;99.90;;;;;;5042713;28;20661;-50
2022/08/27 10:14:54;;;;;;;5.15;2.45;;;21.70;99.90;;;;;;5042337;28;20045;-49
2022/08/27 10:17:25;;;;;;;7.32;2.28;;;21.70;99.90;;;;;;5040845;28;20041;-50
2022/08/27 10:20:02;;;;;;;9.02;2.25;;;21.40;99.90;;;;;;5022520;28;20056;-47
2022/08/27 10:23:06;;;;;;;6.75;2.30;;;21.10;99.90;;;;;;5019729;28;20059;-48
2022/08/27 10:25:44;;;;;;;14.73;2.70;;;20.80;99.90;;;;;;5036864;28;20461;-47
2022/08/27 10:28:16;;;;;;;9.30;1.83;;;20.50;99.90;;;;;;5041927;28;20530;-48
2022/08/27 10:31:07;;;;;;;12.80;2.10;;;20.30;99.90;;;;;;5042123;28;20106;-48
2022/08/27 10:34:11;;;;;;;9.20;2.00;;;20.40;99.90;;;;;;5040810;28;20044;-47
2022/08/27 10:36:48;;;;;;;7.32;1.95;;;20.50;99.90;;;;;;5025576;28;20099;-52
2022/08/27 10:39:28;;;;;;;11.80;2.30;;;20.40;99.90;;;;;;5041272;28;20045;-51
2022/08/27 10:42:25;;;;;;;5.07;1.88;;;20.50;99.90;;;;;;5032167;28;20045;-50
2022/08/27 10:45:25;;;;;;;5.97;2.00;;;20.70;99.90;;;;;;5036172;28;20049;-50
2022/08/27 10:48:09;;;;;;;5.70;1.60;;;21.20;99.90;;;;;;5045974;28;20520;-51
2022/08/27 10:50:48;;;;;;;7.47;1.92;;;21.70;99.90;;;;;;5020830;28;20107;-49
2022/08/27 10:53:31;;;;;;;9.18;2.45;;;21.90;99.90;;;;;;5023152;28;20264;-47
2022/08/27 10:56:07;;;;;;;;;;;21.90;99.90;;;;;;5036988;28;20468;-46
2022/08/27 10:58:38;;;;;;;8.65;1.75;;;21.60;99.90;;;;;;5027667;28;19969;-50
2022/08/27 11:01:45;;;;;;;6.17;1.40;;;21.60;99.90;;;;;;5046047;28;20059;-49
2022/08/27 11:04:20;;;;;;;4.78;1.40;;;21.50;99.90;;;;;;5036450;28;20794;-48
2022/08/27 11:07:00;;;;;;;8.68;1.80;;;21.50;99.90;;;;;;5045443;28;20103;-48
2022/08/27 11:09:48;;;;;;;7.20;1.98;;;21.40;99.90;;;;;;5045210;28;20045;-47
2022/08/27 11:12:20;;;;;;;7.40;2.03;;;21.50;99.90;;;;;;5044241;28;20049;-48
2022/08/27 11:14:57;;;;;;;10.25;2.28;;;21.70;99.90;;;;;;5046868;28;20056;-47
2022/08/27 11:17:29;;;;;;;7.13;2.00;;;21.80;99.90;;;;;;5025763;28;20091;-49
2022/08/27 11:20:23;;;;;;;5.43;1.73;;;21.70;99.90;;;;;;5044314;28;20045;-50
2022/08/27 11:22:59;;;;;;;5.30;1.70;;;21.60;99.90;;;;;;5047028;28;20072;-48
2022/08/27 11:25:30;;;;;;;4.57;1.77;;;21.60;99.90;;;;;;5049379;28;20045;-47
2022/08/27 11:27:58;;;;;;;9.18;2.20;;;21.60;99.90;;;;;;5045098;28;20044;-55
2022/08/27 11:30:34;;;;;;;9.02;1.77;;;21.60;99.90;;;;;;5046031;28;20040;-49
2022/08/27 11:33:16;;;;;;;4.28;1.38;;;21.90;99.90;;;;;;5045489;28;20041;-49
2022/08/27 11:36:07;;;;;;;6.07;1.50;;;22.20;99.90;;;;;;5046069;28;20230;-48
2022/08/27 11:38:52;;;;;;;;;;;22.10;99.90;;;;;;5044535;28;20118;-51
2022/08/27 11:41:24;;;;;;;4.85;1.25;;;21.80;99.90;;;;;;5045720;28;19924;-49
2022/08/27 11:43:51;;;;;;;6.25;1.70;;;21.70;99.90;;;;;;5045102;28;20637;-51
2022/08/27 11:46:26;;;;;;;6.40;1.45;;;21.90;99.80;;;;;;5044381;28;20156;-48
2022/08/27 11:48:58;;;;;;;6.07;1.55;;;22.10;99.70;;;;;;5045114;28;20064;-48
2022/08/27 11:51:34;;;;;;;7.85;1.70;;;22.30;99.40;;;;;;5034090;28;20116;-48
2022/08/27 11:54:05;;;;;;;5.10;1.80;;;22.50;98.30;;;;;;5044938;28;20045;-48
2022/08/27 11:56:38;;;;;;;9.85;1.67;;;22.70;98.90;;;;;;5028172;28;20140;-52
2022/08/27 11:59:08;;;;;;;;;;;22.90;98.40;;;;;;5046206;28;20102;-49
2022/08/27 12:01:34;;;;;;;5.95;1.92;;;22.50;98.40;;;;;;5045014;28;20443;-49
2022/08/27 12:04:31;;;;;;;11.07;1.85;;;22.30;99.10;;;;;;5044547;28;20052;-49
2022/08/27 12:07:17;;;;;;;8.45;2.15;;;22.20;99.40;;;;;;5044827;28;20044;-48
2022/08/27 12:09:56;;;;;;;9.88;2.05;;;21.80;99.40;;;;;;5045427;28;20063;-48
2022/08/27 12:12:56;;;;;;;6.57;1.80;;;22.00;99.10;;;;;;5045711;28;20045;-47
2022/08/27 12:15:41;;;;;;;8.10;1.70;;;22.10;99.00;;;;;;5036353;28;20080;-51
2022/08/27 12:18:25;;;;;;;11.40;2.30;;;21.90;98.80;;;;;;5042398;28;20067;-49
2022/08/27 12:21:04;;;;;;;10.00;1.65;;;21.90;99.50;;;;;;5045385;28;20429;-50
2022/08/27 12:23:42;;;;;;;10.00;2.17;;;21.80;99.60;;;;;;5044694;28;20560;-49
2022/08/27 12:26:30;;;;;;;9.23;1.73;;;21.80;99.50;;;;;;5045557;28;20045;-49
2022/08/27 12:29:22;;;;;;;7.32;1.95;;;21.80;98.30;;;;;;5044982;28;20049;-48
2022/08/27 12:31:54;;;;;;;7.82;1.73;;;22.10;99.10;;;;;;5045477;28;20076;-50
2022/08/27 12:34:25;;;;;;;6.30;1.80;;;22.20;98.10;;;;;;5045419;28;20056;-48
2022/08/27 12:36:53;;;;;;;6.32;1.70;;;22.40;97.90;;;;;;5045049;28;20074;-49
2022/08/27 12:39:25;;;;;;;5.85;1.55;;;22.40;97.70;;;;;;5044885;28;20075;-50
2022/08/27 12:41:51;;;;;;;9.73;1.90;;;22.60;98.30;;;;;;5044419;28;20404;-50
2022/08/27 12:44:32;;;;;;;7.22;1.88;;;22.90;98.50;;;;;;5045103;28;20468;-48
2022/08/27 12:47:06;;;;;;;5.15;2.13;;;22.60;97.80;;;;;;5045558;28;20060;-53
2022/08/27 12:49:40;;;;;;;14.05;2.42;;;22.30;97.70;;;;;;5048476;28;20048;-52
2022/08/27 12:52:34;;;;;;;5.30;1.65;;;22.20;98.30;;;;;;5033795;28;20563;-50
2022/08/27 12:55:17;;;;;;;10.10;2.47;;;22.40;98.70;;;;;;5027376;28;20059;-53
2022/08/27 12:58:08;;;;;;;8.00;1.90;;;22.70;98.30;;;;;;5027179;28;20065;-49
2022/08/27 13:00:57;;;;;;;5.95;1.40;;;22.60;96.80;;;;;;5043287;28;20475;-49
2022/08/27 13:03:53;;;;;;;5.57;1.48;;;22.90;97.20;;;;;;4965428;28;20066;-51
2022/08/27 13:06:26;;;;;;;5.68;1.15;;;23.30;97.80;;;;;;4907537;29;20123;-53
2022/08/27 13:08:58;;;;;;;7.00;1.80;;;23.20;97.10;;;;;;4906147;29;20060;-51
2022/08/27 13:11:27;;;;;;;5.45;1.33;;;22.90;96.20;;;;;;4890446;29;20056;-49
2022/08/27 13:14:08;;;;;;;3.97;1.30;;;22.60;96.40;;;;;;4906898;29;20519;-48